West Miami, Florida
Current Conditions -  °F | °C
As of 2:53 PM on Saturday 25 Oct 2014 (Local Time) from KMIA Reporting Station
Scattered Clouds Scattered Clouds  
Wind Chill: 84°   Ceiling: Unl
Heat Index: 84°   Visibility: 10mi
Dew Point: 59°   Wind: 10mph
Humidity: 43%   Direction: 20°NNE
Pressure: 29.88"   Gusts: 21mph
Location:  25.7365°N, 80.3112°W
Report Text: KMIA 251853Z 02009G18KT 340V050 10SM FEW035 SCT050 29/15 A2988 RMK AO2 SLP118 T02890150
Loading
Personal Weather Stations






























Interactive Weather Map
Tropical Storm Tracking
New forecast layout! Learn more

10-Day Weather Forecast

Advertisements
Track Severe Weather on mobile